createdAt,value
2017-10-07T00:00:27.528Z,99453.30
2017-10-07T00:02:53.760Z,99441.19
2017-10-07T00:05:19.986Z,99432.75
2017-10-07T00:07:46.240Z,99423.34
2017-10-07T00:10:12.467Z,99425.42
2017-10-07T00:12:38.696Z,99425.18
2017-10-07T00:15:04.912Z,99424.86
2017-10-07T00:17:31.176Z,99421.39
2017-10-07T00:19:57.423Z,99414.39
2017-10-07T00:22:23.642Z,99421.65
2017-10-07T00:24:49.859Z,99420.00
2017-10-07T00:27:16.083Z,99421.06
2017-10-07T00:29:42.323Z,99417.34
2017-10-07T00:32:08.545Z,99413.59
2017-10-07T00:34:34.891Z,99405.80
2017-10-07T00:37:01.123Z,99400.06
2017-10-07T00:39:27.370Z,99400.25
2017-10-07T00:41:53.639Z,99395.00
2017-10-07T00:44:19.839Z,99391.77
2017-10-07T00:46:46.054Z,99389.70
2017-10-07T00:49:12.275Z,99394.23
2017-10-07T00:51:38.513Z,99392.39
2017-10-07T00:54:04.811Z,99392.61
2017-10-07T00:56:31.165Z,99396.56
2017-10-07T00:58:57.403Z,99397.40
2017-10-07T01:01:23.639Z,99392.55
2017-10-07T01:03:49.890Z,99385.98
2017-10-07T01:06:16.131Z,99386.48
2017-10-07T01:08:42.375Z,99387.46
2017-10-07T01:11:08.614Z,99384.80
2017-10-07T01:13:34.851Z,99377.55
2017-10-07T01:16:01.097Z,99387.25
2017-10-07T01:18:27.386Z,99382.24
2017-10-07T01:20:53.626Z,99380.59
2017-10-07T01:23:19.888Z,99375.94
2017-10-07T01:25:46.117Z,99375.22
2017-10-07T01:28:12.344Z,99368.74
2017-10-07T01:30:38.590Z,99367.09
2017-10-07T01:33:04.828Z,99363.53
2017-10-07T01:35:31.069Z,99355.01
2017-10-07T01:37:57.326Z,99362.51
2017-10-07T01:40:23.564Z,99370.06
2017-10-07T01:42:49.861Z,99367.85
2017-10-07T01:45:16.103Z,99372.09
2017-10-07T01:47:42.325Z,99369.19
2017-10-07T01:50:08.549Z,99365.98
2017-10-07T01:52:34.793Z,99362.92
2017-10-07T01:55:01.031Z,99369.50
2017-10-07T01:57:27.269Z,99362.62
2017-10-07T01:59:53.715Z,99355.47
2017-10-07T02:02:19.959Z,99357.38
2017-10-07T02:04:46.192Z,99360.00
2017-10-07T02:07:12.418Z,99357.26
2017-10-07T02:09:38.655Z,99359.44
2017-10-07T02:12:04.894Z,99363.86
2017-10-07T02:14:31.154Z,99361.70
2017-10-07T02:16:57.383Z,99361.86
2017-10-07T02:19:23.661Z,99365.99
2017-10-07T02:21:49.910Z,99367.98
2017-10-07T02:24:16.137Z,99370.06
2017-10-07T02:26:42.443Z,99365.84
2017-10-07T02:29:08.661Z,99357.05
2017-10-07T02:31:34.937Z,99364.65
2017-10-07T02:34:01.212Z,99354.28
2017-10-07T02:36:27.440Z,99357.91
2017-10-07T02:38:53.721Z,99352.29
2017-10-07T02:41:19.939Z,99344.79
2017-10-07T02:43:46.151Z,99355.02
2017-10-07T02:46:12.372Z,99364.09
2017-10-07T02:48:38.612Z,99358.11
2017-10-07T02:51:04.838Z,99358.91
2017-10-07T02:53:31.059Z,99354.75
2017-10-07T02:55:57.417Z,99356.83
2017-10-07T02:58:23.680Z,99352.39
2017-10-07T03:00:50.042Z,99353.20
2017-10-07T03:03:16.300Z,99351.06
2017-10-07T03:05:42.539Z,99353.13
2017-10-07T03:08:08.775Z,99352.47
2017-10-07T03:10:35.021Z,99356.52
2017-10-07T03:13:01.248Z,99350.28
2017-10-07T03:15:27.477Z,99343.92
2017-10-07T03:17:53.704Z,99336.93
2017-10-07T03:20:19.976Z,99336.97
2017-10-07T03:22:46.208Z,99354.14
2017-10-07T03:25:12.446Z,99352.30
2017-10-07T03:27:38.689Z,99347.97
2017-10-07T03:30:04.937Z,99342.19
2017-10-07T03:32:31.184Z,99327.61
2017-10-07T03:34:57.414Z,99323.23
2017-10-07T03:37:23.635Z,99319.91
2017-10-07T03:39:49.849Z,99309.42
2017-10-07T03:42:16.076Z,99305.78
2017-10-07T03:44:42.359Z,99299.94
2017-10-07T03:47:08.583Z,99303.94
2017-10-07T03:49:34.829Z,99313.84
2017-10-07T03:52:01.082Z,99308.75
2017-10-07T03:54:27.483Z,99290.06
2017-10-07T03:56:53.703Z,99282.16
2017-10-07T03:59:19.932Z,99286.49
2017-10-07T04:01:46.182Z,99294.31
2017-10-07T04:04:12.417Z,99297.89
2017-10-07T04:06:38.669Z,99321.77
2017-10-07T04:09:04.933Z,99348.67
2017-10-07T04:11:31.167Z,99367.20
2017-10-07T04:13:57.373Z,99374.47
2017-10-07T04:16:23.637Z,99368.52
2017-10-07T04:18:49.867Z,99364.58
2017-10-07T04:21:16.167Z,99373.16
2017-10-07T04:23:42.397Z,99375.66
2017-10-07T04:26:08.623Z,99365.75
2017-10-07T04:28:34.878Z,99356.09
2017-10-07T04:31:01.110Z,99341.52
2017-10-07T04:33:27.334Z,99327.75
2017-10-07T04:35:53.568Z,99334.16
2017-10-07T04:38:19.789Z,99341.64
2017-10-07T04:40:46.041Z,99331.48
2017-10-07T04:43:12.276Z,99325.42
2017-10-07T04:45:38.568Z,99336.40
2017-10-07T04:48:04.811Z,99340.47
2017-10-07T04:50:31.045Z,99348.13
2017-10-07T04:52:57.282Z,99334.80
2017-10-07T04:55:23.491Z,99332.26
2017-10-07T04:57:49.712Z,99334.00
2017-10-07T05:00:15.938Z,99323.67
2017-10-07T05:02:42.155Z,99318.86
2017-10-07T05:05:08.379Z,99314.00
2017-10-07T05:07:34.619Z,99311.53
2017-10-07T05:10:00.992Z,99304.05
2017-10-07T05:12:27.221Z,99317.34
2017-10-07T05:14:53.439Z,99316.16
2017-10-07T05:17:19.694Z,99314.30
2017-10-07T05:19:45.903Z,99324.53
2017-10-07T05:22:12.138Z,99325.44
2017-10-07T05:24:38.468Z,99324.30
2017-10-07T05:27:04.715Z,99327.05
2017-10-07T05:29:31.035Z,99328.44
2017-10-07T05:31:57.482Z,99329.72
2017-10-07T05:34:23.782Z,99330.50
2017-10-07T05:36:50.052Z,99327.03
2017-10-07T05:39:16.284Z,99318.28
2017-10-07T05:41:42.516Z,99315.44
2017-10-07T05:44:08.860Z,99319.47
2017-10-07T05:46:35.235Z,99319.27
2017-10-07T05:49:01.467Z,99317.06
2017-10-07T05:51:27.722Z,99303.69
2017-10-07T05:53:53.999Z,99307.03
2017-10-07T05:56:20.235Z,99303.66
2017-10-07T05:58:46.473Z,99306.55
2017-10-07T06:01:12.837Z,99303.75
2017-10-07T06:03:39.068Z,99311.52
2017-10-07T06:06:05.304Z,99314.72
2017-10-07T06:08:31.541Z,99314.39
2017-10-07T06:10:57.810Z,99312.56
2017-10-07T06:13:24.043Z,99304.04
2017-10-07T06:15:50.247Z,99304.44
2017-10-07T06:18:16.464Z,99306.14
2017-10-07T06:20:42.685Z,99312.20
2017-10-07T06:23:08.905Z,99313.03
2017-10-07T06:25:35.223Z,99307.73
2017-10-07T06:28:01.459Z,99291.23
2017-10-07T06:30:27.677Z,99280.94
2017-10-07T06:32:53.882Z,99286.64
2017-10-07T06:35:20.117Z,99288.20
2017-10-07T06:37:46.353Z,99290.27
2017-10-07T06:40:12.567Z,99287.81
2017-10-07T06:42:38.793Z,99296.40
2017-10-07T06:45:05.097Z,99292.39
2017-10-07T06:47:31.352Z,99294.59
2017-10-07T06:49:57.561Z,99300.61
2017-10-07T06:52:23.762Z,99313.09
2017-10-07T06:54:49.992Z,99314.14
2017-10-07T06:57:16.214Z,99317.35
2017-10-07T06:59:42.435Z,99320.29
2017-10-07T07:02:08.679Z,99309.26
2017-10-07T07:04:34.957Z,99292.52
2017-10-07T07:07:01.177Z,99285.69
2017-10-07T07:09:27.413Z,99276.34
2017-10-07T07:11:53.684Z,99286.05
2017-10-07T07:14:19.898Z,99284.22
2017-10-07T07:16:46.134Z,99293.97
2017-10-07T07:19:12.420Z,99304.10
2017-10-07T07:21:38.765Z,99310.89
2017-10-07T07:24:05.066Z,99306.80
2017-10-07T07:26:31.337Z,99304.70
2017-10-07T07:28:57.567Z,99298.71
2017-10-07T07:31:23.825Z,99286.24
2017-10-07T07:33:50.108Z,99275.50
2017-10-07T07:36:16.321Z,99270.56
2017-10-07T07:38:42.621Z,99275.77
2017-10-07T07:41:08.844Z,99276.06
2017-10-07T07:43:35.046Z,99284.64
2017-10-07T07:46:01.318Z,99283.34
2017-10-07T07:48:27.512Z,99289.86
2017-10-07T07:50:53.777Z,99299.54
2017-10-07T07:53:20.002Z,99304.55
2017-10-07T07:55:46.194Z,99299.79
2017-10-07T07:58:12.424Z,99292.32
2017-10-07T08:00:38.649Z,99278.54
2017-10-07T08:03:04.905Z,99275.80
2017-10-07T08:05:31.120Z,99265.36
2017-10-07T08:07:57.324Z,99248.87
2017-10-07T08:10:23.578Z,99230.17
2017-10-07T08:12:49.799Z,99204.45
2017-10-07T08:15:16.083Z,99177.63
2017-10-07T08:17:42.323Z,99207.48
2017-10-07T08:20:08.655Z,99227.52
2017-10-07T08:22:34.899Z,99228.87
2017-10-07T08:25:01.105Z,99245.08
2017-10-07T08:27:27.345Z,99262.34
2017-10-07T08:29:53.570Z,99272.70
2017-10-07T08:32:19.804Z,99259.19
2017-10-07T08:34:46.057Z,99241.11
2017-10-07T08:37:12.295Z,99236.28
2017-10-07T08:39:38.565Z,99249.70
2017-10-07T08:42:04.821Z,99276.13
2017-10-07T08:44:31.069Z,99294.38
2017-10-07T08:46:57.395Z,99296.80
2017-10-07T08:49:23.630Z,99291.40
2017-10-07T08:51:49.876Z,99282.01
2017-10-07T08:54:16.079Z,99280.14
2017-10-07T08:56:42.455Z,99299.48
2017-10-07T08:59:08.730Z,99310.11
2017-10-07T09:01:34.962Z,99318.93
2017-10-07T09:04:01.200Z,99334.81
2017-10-07T09:06:27.436Z,99346.58
2017-10-07T09:08:53.774Z,99340.96
2017-10-07T09:11:20.068Z,99312.39
2017-10-07T09:13:46.292Z,99287.84
2017-10-07T09:16:12.715Z,99277.20
2017-10-07T09:18:38.944Z,99297.27
2017-10-07T09:21:05.196Z,99317.64
2017-10-07T09:23:31.434Z,99354.77
2017-10-07T09:25:57.652Z,99378.42
2017-10-07T09:28:23.853Z,99378.94
2017-10-07T09:30:50.123Z,99366.44
2017-10-07T09:33:16.360Z,99368.57
2017-10-07T09:35:42.594Z,99365.41
2017-10-07T09:38:08.807Z,99337.41
2017-10-07T09:40:35.079Z,99332.70
2017-10-07T09:43:01.478Z,99320.61
2017-10-07T09:45:27.683Z,99311.59
2017-10-07T09:47:53.933Z,99321.52
2017-10-07T09:50:20.132Z,99326.79
2017-10-07T09:52:46.391Z,99315.16
2017-10-07T09:55:12.592Z,99309.02
2017-10-07T09:57:38.836Z,99303.12
2017-10-07T10:00:05.054Z,99328.90
2017-10-07T10:02:31.291Z,99343.31
2017-10-07T10:04:57.489Z,99346.29
2017-10-07T10:07:23.689Z,99353.95
2017-10-07T10:09:49.913Z,99351.19
2017-10-07T10:12:16.142Z,99356.96
2017-10-07T10:14:42.354Z,99375.09
2017-10-07T10:17:08.609Z,99382.42
2017-10-07T10:19:34.984Z,99383.53
2017-10-07T10:22:01.184Z,99390.09
2017-10-07T10:24:27.425Z,99395.64
2017-10-07T10:26:53.646Z,99386.75
2017-10-07T10:29:19.846Z,99394.86
2017-10-07T10:31:46.042Z,99371.41
2017-10-07T10:34:12.325Z,99364.89
2017-10-07T10:36:38.543Z,99375.94
2017-10-07T10:39:04.764Z,99388.12
2017-10-07T10:41:30.976Z,99401.63
2017-10-07T10:43:57.234Z,99414.63
2017-10-07T10:46:23.448Z,99430.22
2017-10-07T10:48:49.709Z,99424.59
2017-10-07T10:51:15.913Z,99420.48
2017-10-07T10:53:42.148Z,99422.39
2017-10-07T10:56:08.408Z,99405.27
2017-10-07T10:58:34.632Z,99409.09
2017-10-07T11:01:00.858Z,99399.31
2017-10-07T11:03:27.068Z,99397.17
2017-10-07T11:05:53.299Z,99399.16
2017-10-07T11:08:19.537Z,99404.38
2017-10-07T11:10:45.810Z,99399.37
2017-10-07T11:13:12.041Z,99393.83
2017-10-07T11:15:38.239Z,99399.80
2017-10-07T11:18:04.471Z,99385.92
2017-10-07T11:20:30.686Z,99380.06
2017-10-07T11:22:56.915Z,99383.52
2017-10-07T11:25:23.127Z,99400.44
2017-10-07T11:27:49.339Z,99395.93
2017-10-07T11:30:15.531Z,99394.81
2017-10-07T11:32:41.741Z,99391.92
2017-10-07T11:35:08.015Z,99388.38
2017-10-07T11:37:34.265Z,99394.33
2017-10-07T11:40:00.500Z,99405.22
2017-10-07T11:42:26.724Z,99388.66
2017-10-07T11:44:52.950Z,99393.83
2017-10-07T11:47:19.199Z,99392.06
2017-10-07T11:49:45.393Z,99391.05
2017-10-07T11:52:11.595Z,99386.36
2017-10-07T11:54:37.916Z,99384.92
2017-10-07T11:57:04.176Z,99379.48
2017-10-07T11:59:30.485Z,99382.83
2017-10-07T12:01:56.700Z,99375.58
2017-10-07T12:04:22.938Z,99383.73
2017-10-07T12:06:49.187Z,99399.01
2017-10-07T12:09:15.445Z,99398.52
2017-10-07T12:11:41.700Z,99397.72
2017-10-07T12:14:08.055Z,99389.66
2017-10-07T12:16:34.568Z,99404.42
2017-10-07T12:19:00.827Z,99412.53
2017-10-07T12:21:27.253Z,99417.89
2017-10-07T12:23:53.493Z,99414.66
2017-10-07T12:26:19.697Z,99402.62
2017-10-07T12:28:46.064Z,99397.45
2017-10-07T12:31:12.331Z,99383.27
2017-10-07T12:33:38.551Z,99393.14
2017-10-07T12:36:04.772Z,99392.10
2017-10-07T12:38:31.198Z,99386.34
2017-10-07T12:40:57.436Z,99373.86
2017-10-07T12:43:23.676Z,99372.13
2017-10-07T12:45:49.926Z,99358.68
2017-10-07T12:48:16.141Z,99349.83
2017-10-07T12:50:42.421Z,99344.98
2017-10-07T12:53:08.650Z,99356.94
2017-10-07T12:55:34.857Z,99355.80
2017-10-07T12:58:01.138Z,99348.46
2017-10-07T13:00:27.362Z,99341.91
2017-10-07T13:02:53.584Z,99342.29
2017-10-07T13:05:20.476Z,99340.98
2017-10-07T13:07:46.697Z,99345.06
2017-10-07T13:10:12.920Z,99343.75
2017-10-07T13:12:39.227Z,99345.32
2017-10-07T13:15:05.419Z,99349.83
2017-10-07T13:17:31.679Z,99345.41
2017-10-07T13:19:57.914Z,99357.49
2017-10-07T13:22:24.130Z,99370.11
2017-10-07T13:24:50.565Z,99372.59
2017-10-07T13:27:16.768Z,99391.58
2017-10-07T13:29:42.991Z,99397.58
2017-10-07T13:32:09.238Z,99390.59
2017-10-07T13:34:35.464Z,99391.40
2017-10-07T13:37:01.682Z,99374.09
2017-10-07T13:39:27.918Z,99375.87
2017-10-07T13:41:54.123Z,99373.97
2017-10-07T13:44:20.344Z,99378.95
2017-10-07T13:46:46.551Z,99378.41
2017-10-07T13:49:12.946Z,99373.55
2017-10-07T13:51:39.232Z,99373.69
2017-10-07T13:54:05.433Z,99375.50
2017-10-07T13:56:31.710Z,99381.23
2017-10-07T13:58:57.916Z,99372.91
2017-10-07T14:01:24.139Z,99358.28
2017-10-07T14:03:50.358Z,99343.72
2017-10-07T14:06:16.581Z,99330.47
2017-10-07T14:08:42.822Z,99335.65
2017-10-07T14:11:09.039Z,99335.39
2017-10-07T14:13:35.237Z,99321.44
2017-10-07T14:16:01.447Z,99331.45
2017-10-07T14:18:27.665Z,99340.56
2017-10-07T14:20:53.879Z,99352.06
2017-10-07T14:23:20.274Z,99355.03
2017-10-07T14:25:46.679Z,99359.75
2017-10-07T14:28:12.951Z,99359.32
2017-10-07T14:30:39.180Z,99343.56
2017-10-07T14:33:05.443Z,99326.06
2017-10-07T14:35:31.661Z,99334.02
2017-10-07T14:37:57.979Z,99344.32
2017-10-07T14:40:25.057Z,99351.05
2017-10-07T14:42:52.586Z,99350.83
2017-10-07T14:45:20.070Z,99354.48
2017-10-07T14:47:47.739Z,99364.80
2017-10-07T14:50:15.163Z,99372.64
2017-10-07T14:52:42.340Z,99371.01
2017-10-07T14:55:08.666Z,99376.77
2017-10-07T14:57:34.928Z,99385.92
2017-10-07T15:00:01.139Z,99382.71
2017-10-07T15:02:27.445Z,99392.07
2017-10-07T15:04:53.689Z,99384.20
2017-10-07T15:07:20.094Z,99390.09
2017-10-07T15:09:46.291Z,99371.38
2017-10-07T15:12:12.535Z,99355.31
2017-10-07T15:14:38.718Z,99353.45
2017-10-07T15:17:05.017Z,99361.25
2017-10-07T15:19:31.256Z,99381.98
2017-10-07T15:21:57.457Z,99386.60
2017-10-07T15:24:23.675Z,99376.28
2017-10-07T15:26:49.940Z,99371.53
2017-10-07T15:29:16.142Z,99373.45
2017-10-07T15:31:42.364Z,99372.81
2017-10-07T15:34:08.610Z,99375.79
2017-10-07T15:36:34.821Z,99373.98
2017-10-07T15:39:01.016Z,99367.72
2017-10-07T15:41:27.249Z,99361.03
2017-10-07T15:43:53.449Z,99358.06
2017-10-07T15:46:19.652Z,99343.16
2017-10-07T15:48:45.901Z,99339.48
2017-10-07T15:51:12.087Z,99344.59
2017-10-07T15:53:38.285Z,99331.02
2017-10-07T15:56:04.534Z,99325.55
2017-10-07T15:58:30.921Z,99333.17
2017-10-07T16:00:57.129Z,99338.08
2017-10-07T16:03:23.371Z,99342.72
2017-10-07T16:05:49.588Z,99355.87
2017-10-07T16:08:15.806Z,99368.92
2017-10-07T16:10:42.067Z,99376.55
2017-10-07T16:13:08.316Z,99384.13
2017-10-07T16:15:34.536Z,99386.33
2017-10-07T16:18:00.789Z,99383.20
2017-10-07T16:20:26.989Z,99366.00
2017-10-07T16:22:53.227Z,99364.68
2017-10-07T16:25:19.482Z,99369.91
2017-10-07T16:27:45.702Z,99366.94
2017-10-07T16:30:11.905Z,99362.45
2017-10-07T16:32:38.173Z,99372.25
2017-10-07T16:35:04.372Z,99375.34
2017-10-07T16:37:30.702Z,99373.05
2017-10-07T16:39:56.953Z,99382.61
2017-10-07T16:42:23.150Z,99401.36
2017-10-07T16:44:49.353Z,99404.16
2017-10-07T16:47:15.652Z,99389.73
2017-10-07T16:49:41.854Z,99371.78
2017-10-07T16:52:08.076Z,99355.25
2017-10-07T16:54:34.336Z,99367.53
2017-10-07T16:57:00.546Z,99374.61
2017-10-07T16:59:26.754Z,99376.95
2017-10-07T17:01:52.987Z,99364.27
2017-10-07T17:04:19.202Z,99347.39
2017-10-07T17:06:45.419Z,99347.92
2017-10-07T17:09:11.673Z,99357.30
2017-10-07T17:11:37.888Z,99348.36
2017-10-07T17:14:04.104Z,99352.44
2017-10-07T17:16:30.392Z,99362.23
2017-10-07T17:18:56.588Z,99363.42
2017-10-07T17:21:22.803Z,99362.84
2017-10-07T17:23:49.058Z,99373.49
2017-10-07T17:26:15.268Z,99378.34
2017-10-07T17:28:41.506Z,99388.07
2017-10-07T17:31:07.750Z,99392.07
2017-10-07T17:33:33.967Z,99399.53
2017-10-07T17:36:00.229Z,99416.78
2017-10-07T17:38:26.478Z,99426.99
2017-10-07T17:40:52.708Z,99430.28
2017-10-07T17:43:18.949Z,99425.28
2017-10-07T17:45:45.214Z,99424.05
2017-10-07T17:48:11.432Z,99416.38
2017-10-07T17:50:37.649Z,99416.02
2017-10-07T17:53:03.893Z,99403.28
2017-10-07T17:58:01.664Z,99394.67
2017-10-07T18:00:27.896Z,99379.31
2017-10-07T18:02:54.108Z,99378.92
2017-10-07T18:05:20.307Z,99394.52
2017-10-07T18:07:46.521Z,99384.50
2017-10-07T18:10:12.736Z,99384.38
2017-10-07T18:12:39.013Z,99377.34
2017-10-07T18:15:05.246Z,99357.67
2017-10-07T18:17:31.455Z,99362.23
2017-10-07T18:19:57.644Z,99383.70
2017-10-07T18:22:23.856Z,99400.55
2017-10-07T18:24:50.074Z,99421.97
2017-10-07T18:27:16.284Z,99437.34
2017-10-07T18:29:42.493Z,99446.88
2017-10-07T18:32:08.698Z,99448.95
2017-10-07T18:34:34.897Z,99454.99
2017-10-07T18:37:01.117Z,99446.05
2017-10-07T18:39:27.404Z,99448.70
2017-10-07T18:41:53.630Z,99447.00
2017-10-07T18:44:19.862Z,99443.77
2017-10-07T18:46:46.085Z,99438.42
2017-10-07T18:49:12.291Z,99444.82
2017-10-07T18:51:38.532Z,99472.60
2017-10-07T18:54:04.741Z,99472.27
2017-10-07T18:56:30.948Z,99468.21
2017-10-07T18:58:57.159Z,99464.95
2017-10-07T19:01:23.349Z,99478.73
2017-10-07T19:03:49.712Z,99475.45
2017-10-07T19:06:15.921Z,99467.73
2017-10-07T19:08:42.139Z,99465.86
2017-10-07T19:11:08.391Z,99456.84
2017-10-07T19:13:34.610Z,99446.95
2017-10-07T19:16:00.813Z,99441.53
2017-10-07T19:18:27.014Z,99421.43
2017-10-07T19:20:53.213Z,99402.98
2017-10-07T19:23:19.489Z,99398.86
2017-10-07T19:25:45.681Z,99403.61
2017-10-07T19:28:11.919Z,99422.91
2017-10-07T19:30:38.140Z,99435.90
2017-10-07T19:33:04.361Z,99442.98
2017-10-07T19:35:30.578Z,99460.70
2017-10-07T19:37:56.793Z,99472.70
2017-10-07T19:40:23.005Z,99475.72
2017-10-07T19:42:49.209Z,99466.69
2017-10-07T19:45:15.424Z,99475.57
2017-10-07T19:47:41.801Z,99479.39
2017-10-07T19:50:08.016Z,99467.51
2017-10-07T19:52:34.240Z,99470.93
2017-10-07T19:55:00.429Z,99472.19
2017-10-07T19:57:26.652Z,99444.97
2017-10-07T19:59:52.868Z,99434.09
2017-10-07T20:02:19.059Z,99460.83
2017-10-07T20:04:45.296Z,99461.61
2017-10-07T20:07:11.509Z,99455.11
2017-10-07T20:09:37.716Z,99435.34
2017-10-07T20:12:03.965Z,99446.12
2017-10-07T20:14:30.205Z,99459.12
2017-10-07T20:16:56.429Z,99477.02
2017-10-07T20:19:22.661Z,99485.23
2017-10-07T20:21:48.887Z,99485.59
2017-10-07T20:24:15.105Z,99478.89
2017-10-07T20:26:41.351Z,99480.99
2017-10-07T20:29:07.554Z,99490.30
2017-10-07T20:31:33.781Z,99481.73
2017-10-07T20:34:00.014Z,99490.09
2017-10-07T20:36:26.257Z,99481.43
2017-10-07T20:38:52.472Z,99458.03
2017-10-07T20:41:18.721Z,99433.99
2017-10-07T20:43:44.941Z,99426.08
2017-10-07T20:46:11.166Z,99422.06
2017-10-07T20:48:37.400Z,99428.11
2017-10-07T20:51:03.612Z,99425.34
2017-10-07T20:53:29.802Z,99405.61
2017-10-07T20:55:56.027Z,99386.77
2017-10-07T20:58:22.228Z,99395.50
2017-10-07T21:00:48.428Z,99412.47
2017-10-07T21:03:14.667Z,99399.50
2017-10-07T21:05:40.892Z,99391.94
2017-10-07T21:08:07.093Z,99381.34
2017-10-07T21:10:33.317Z,99376.53
2017-10-07T21:12:59.546Z,99393.27
2017-10-07T21:15:25.801Z,99411.36
2017-10-07T21:17:52.766Z,99407.88
2017-10-07T21:20:18.973Z,99410.08
2017-10-07T21:22:45.173Z,99413.80
2017-10-07T21:25:11.408Z,99413.23
2017-10-07T21:27:37.617Z,99388.73
2017-10-07T21:30:03.842Z,99392.54
2017-10-07T21:32:30.053Z,99396.24
2017-10-07T21:34:56.265Z,99382.81
2017-10-07T21:37:22.473Z,99362.65
2017-10-07T21:39:48.709Z,99357.62
2017-10-07T21:42:14.912Z,99359.25
2017-10-07T21:44:41.093Z,99362.50
2017-10-07T21:47:07.328Z,99361.03
2017-10-07T21:49:33.632Z,99363.67
2017-10-07T21:51:59.850Z,99362.05
2017-10-07T21:54:26.078Z,99376.05
2017-10-07T21:56:52.296Z,99379.88
2017-10-07T21:59:18.532Z,99381.84
2017-10-07T22:01:44.743Z,99387.67
2017-10-07T22:04:10.969Z,99388.38
2017-10-07T22:06:37.179Z,99390.94
2017-10-07T22:09:03.399Z,99401.18
2017-10-07T22:11:29.611Z,99410.12
2017-10-07T22:13:55.881Z,99424.65
2017-10-07T22:16:22.093Z,99421.76
2017-10-07T22:18:48.296Z,99431.00
2017-10-07T22:21:14.513Z,99438.31
2017-10-07T22:23:40.775Z,99439.48
2017-10-07T22:26:06.996Z,99441.55
2017-10-07T22:28:33.201Z,99458.20
2017-10-07T22:30:59.428Z,99467.70
2017-10-07T22:33:25.649Z,99474.90
2017-10-07T22:35:51.970Z,99476.50
2017-10-07T22:38:18.245Z,99476.61
2017-10-07T22:40:44.508Z,99476.95
2017-10-07T22:43:10.746Z,99473.16
2017-10-07T22:45:36.964Z,99477.31
2017-10-07T22:48:03.170Z,99476.72
2017-10-07T22:50:29.379Z,99475.33
2017-10-07T22:52:55.598Z,99485.09
2017-10-07T22:55:21.818Z,99481.53
2017-10-07T22:57:48.061Z,99479.04
2017-10-07T23:00:14.273Z,99486.48
2017-10-07T23:02:40.474Z,99481.58
2017-10-07T23:05:06.683Z,99496.52
2017-10-07T23:07:32.903Z,99501.95
2017-10-07T23:09:59.112Z,99494.75
2017-10-07T23:12:25.528Z,99496.80
2017-10-07T23:14:51.806Z,99493.20
2017-10-07T23:17:18.052Z,99497.09
2017-10-07T23:19:44.278Z,99489.70
2017-10-07T23:22:10.958Z,99500.28
2017-10-07T23:24:37.150Z,99501.46
2017-10-07T23:27:03.348Z,99501.34
2017-10-07T23:29:29.565Z,99497.86
2017-10-07T23:31:55.803Z,99493.17
2017-10-07T23:34:22.019Z,99484.36
2017-10-07T23:36:48.250Z,99485.59
2017-10-07T23:39:14.476Z,99489.02
2017-10-07T23:41:40.699Z,99484.30
2017-10-07T23:44:06.913Z,99491.98
2017-10-07T23:46:33.124Z,99489.94
2017-10-07T23:48:59.353Z,99488.69
2017-10-07T23:51:25.600Z,99490.91
2017-10-07T23:53:51.863Z,99486.27
2017-10-07T23:56:18.085Z,99486.70
2017-10-07T23:58:44.305Z,99477.48
